• Join FlightAware (Why Join?)
  • Login
  • US Flag 
08:04AM EDT


 

Airport Tracker/Info


-or-


 

Live Flight TrackerFlight Track Log ✈ N693EE ✈ 02-Dec-2013 ✈ KAPC - KFFZ

Flight Track Log - Related Links

Times and Time Zones

All times are in EST time to prevent confusion due to time zone crossing. See the N693EE flight status page for this flight to view local times or setup timezone preferences in your user account.

Time Position Orientation Groundspeed Altitude Reporting Facility
EST Latitude Longitude Course Direction KTS MPH feet Rate Location/Type
11:00AM 38.2008 -122.2931 133° Southeast 113 130 800  Level Oakland Center
11:01AM 38.1914 -122.3311 252° West 113 130 2,300 1,440 Climbing Oakland Center
11:02AM 38.1778 -122.3742 248° West 124 143 3,800 1,200 Climbing Oakland Center
11:03AM 38.1300 -122.4000 203° Southwest 185 213 4,800 1,500 Climbing Oakland Center
11:04AM 38.1033 -122.4361 227° Southwest 149 171 6,900 1,740 Climbing Oakland Center
11:05AM 38.0114 -121.7559 133° Southeast  Level Estimated
11:05AM 38.0653 -122.4472 193° South 165 190 8,400  Level Oakland Center
11:06AM 38.0175 -122.4269 162° South 180 207 10,100 1,620 Climbing Oakland Center
11:07AM 37.9678 -122.4083 164° South 184 212 11,700 1,440 Climbing Oakland Center
11:08AM 37.9172 -122.3903 164° South 186 214 13,100 1,380 Climbing Oakland Center
11:09AM 37.8661 -122.3706 163° South 189 217 14,600 1,320 Climbing Oakland Center
11:10AM 37.8186 -122.3361 150° Southeast 198 228 15,900 1,380 Climbing Oakland Center
11:11AM 37.7750 -122.2844 137° Southeast 212 244 17,500 1,320 Climbing Oakland Center
11:12AM 37.7203 -122.2231 138° Southeast 217 250 18,600 1,080 Climbing Oakland Center
11:13AM 37.6728 -122.1703 139° Southeast 224 258 19,800 1,260 Climbing Oakland Center
11:14AM 37.6222 -122.1147 139° Southeast 237 273 21,200 1,260 Climbing Oakland Center
11:15AM 37.5747 -122.0606 138° Southeast 232 267 22,400 1,080 Climbing Oakland Center
11:16AM 37.5253 -122.0044 138° Southeast 236 272 23,400 1,020 Climbing Oakland Center
11:17AM 37.4728 -121.9478 139° Southeast 246 283 24,500 1,020 Climbing Oakland Center
11:18AM 37.4222 -121.8908 138° Southeast 245 282 25,500 840 Climbing Oakland Center
11:19AM 37.3700 -121.8333 139° Southeast 248 285 26,300 660 Climbing Oakland Center
11:21AM 37.3150 -121.7703 138° Southeast 250 288 26,900 300 Climbing Oakland Center
11:22AM 37.2564 -121.7056 139° Southeast 272 313 27,000  Climbing Oakland Center
11:23AM 37.1933 -121.6364 139° Southeast 293 337 27,000  Level Oakland Center
11:24AM 37.1289 -121.5656 139° Southeast 304 350 27,000  Level Oakland Center
11:25AM 37.0603 -121.4781 134° Southeast 309 356 27,000  Level Oakland Center
11:26AM 37.0069 -121.3900 127° Southeast 315 362 27,000  Level Oakland Center
11:27AM 36.9497 -121.3069 131° Southeast 316 364 27,000  Level Oakland Center
11:28AM 36.8931 -121.2236 130° Southeast 316 364 27,000  Level Oakland Center
11:29AM 36.8322 -121.1350 131° Southeast 316 364 27,000  Level Oakland Center
11:30AM 36.7778 -121.0583 132° Southeast 317 365 27,000  Level Oakland Center
11:31AM 36.7208 -120.9747 130° Southeast 316 364 27,000  Level Oakland Center
11:32AM 36.6639 -120.8928 131° Southeast 315 362 27,000  Level Oakland Center
11:33AM 36.6072 -120.8086 130° Southeast 316 364 27,000  Level Oakland Center
11:34AM 36.5392 -120.7097 131° Southeast 315 362 27,000  Level Oakland Center
11:35AM 36.4811 -120.6289 132° Southeast 314 361 27,000  Level Oakland Center
11:36AM 36.4250 -120.5464 130° Southeast 313 360 27,000  Level Oakland Center
11:37AM 36.3681 -120.4661 131° Southeast 311 358 27,000  Level Oakland Center
11:38AM 36.3119 -120.3844 130° Southeast 310 357 27,000  Level Oakland Center
11:39AM 36.2558 -120.3042 131° Southeast 309 356 27,000  Level Oakland Center
11:40AM 36.1989 -120.2231 131° Southeast 310 357 27,000  Level Oakland Center
11:41AM 36.1428 -120.1422 131° Southeast 310 357 27,000  Level Oakland Center
11:42AM 36.0856 -120.0622 131° Southeast 310 357 27,000  Level Oakland Center
11:43AM 36.0297 -119.9831 131° Southeast 307 353 27,000  Level Oakland Center
11:44AM 35.9742 -119.9036 131° Southeast 306 352 27,000  Level Oakland Center
11:45AM 35.9175 -119.8256 132° Southeast 305 351 27,000  Level Oakland Center
11:46AM 35.8717 -119.7606 131° Southeast 306 352 27,000  Level Los Angeles Center
11:47AM 35.8158 -119.6822 131° Southeast 305 351 27,000  Level Los Angeles Center
11:48AM 35.7586 -119.6031 132° Southeast 307 353 27,000  Level Los Angeles Center
11:49AM 35.7025 -119.5242 131° Southeast 306 352 27,000  Level Los Angeles Center
11:50AM 35.6467 -119.4469 132° Southeast 303 349 27,000  Level Los Angeles Center
11:51AM 35.5797 -119.3531 131° Southeast 303 349 27,000  Level Los Angeles Center
11:52AM 35.5228 -119.2747 132° Southeast 306 352 27,000  Level Los Angeles Center
11:53AM 35.4667 -119.1978 132° Southeast 303 349 27,000  Level Los Angeles Center
11:54AM 35.4103 -119.1197 132° Southeast 305 351 27,000  Level Los Angeles Center
11:55AM 35.3550 -119.0439 132° Southeast 302 348 27,000  Level Los Angeles Center
11:56AM 35.3000 -118.9667 131° Southeast 301 346 27,000  Level Los Angeles Center
11:57AM 35.2339 -118.8756 132° Southeast 299 344 27,000  Level Los Angeles Center
11:58AM 35.1761 -118.7994 133° Southeast 303 349 27,000  Level Los Angeles Center
11:59AM 35.1203 -118.7228 132° Southeast 302 348 27,000  Level Los Angeles Center
12:00PM 35.0636 -118.6467 132° Southeast 302 348 27,000  Level Los Angeles Center
12:01PM 35.0083 -118.5711 132° Southeast 300 345 27,000  Level Los Angeles Center
12:02PM 34.9517 -118.4956 132° Southeast 302 348 27,000  Level Los Angeles Center
12:03PM 34.8900 -118.4131 132° Southeast 298 343 27,000  Level Los Angeles Center
12:04PM 34.8350 -118.3392 132° Southeast 297 342 27,000  Level Los Angeles Center
12:05PM 34.7797 -118.2650 132° Southeast 296 341 27,000  Level Los Angeles Center
12:06PM 34.7128 -118.1758 132° Southeast 299 344 27,000  Level Los Angeles Center
12:07PM 34.6575 -118.1014 132° Southeast 299 344 27,000  Level Los Angeles Center
12:08PM 34.6144 -118.0153 121° Southeast 313 360 27,000  Level Los Angeles Center
12:09PM 34.5867 -117.9203 110° East 306 352 27,000  Level Los Angeles Center
12:10PM 34.5589 -117.8258 110° East 301 346 27,000  Level Los Angeles Center
12:12PM 34.5258 -117.7139 110° East 298 343 27,000  Level Los Angeles Center
12:13PM 34.4975 -117.6217 110° East 297 342 27,000  Level Los Angeles Center
12:14PM 34.4686 -117.5269 110° East 299 344 27,000  Level Los Angeles Center
12:15PM 34.4397 -117.4325 110° East 300 345 27,000  Level Los Angeles Center
12:16PM 34.4117 -117.3378 110° East 300 345 27,000  Level Los Angeles Center
12:17PM 34.3786 -117.2286 110° East 301 346 27,000  Level Los Angeles Center
12:18PM 34.3483 -117.1297 110° East 302 348 27,000  Level Los Angeles Center
12:19PM 34.3192 -117.0353 110° East 302 348 27,000  Level Los Angeles Center
12:20PM 34.2897 -116.9392 110° East 305 351 27,000  Level Los Angeles Center
12:21PM 34.2606 -116.8442 110° East 303 349 27,000  Level Los Angeles Center
12:22PM 34.2306 -116.7478 111° Southeast 306 352 27,000  Level Los Angeles Center
12:23PM 34.1947 -116.6311 110° East 309 356 27,000  Level Los Angeles Center
12:24PM 34.1639 -116.5342 111° Southeast 310 357 27,000  Level Los Angeles Center
12:25PM 34.1342 -116.4350 110° East 314 361 27,000  Level Los Angeles Center
12:26PM 34.0997 -116.3258 111° Southeast 305 351 27,000 -60 Level Los Angeles Center
12:27PM 34.0694 -116.2278 110° East 310 357 26,900  Descending Los Angeles Center
12:28PM 34.0386 -116.1314 111° Southeast 308 354 27,000  Climbing Los Angeles Center
12:29PM 34.0081 -116.0347 111° Southeast 308 354 27,000  Level Los Angeles Center
12:30PM 33.9778 -115.9367 110° East 311 358 27,000  Level Los Angeles Center
12:31PM 33.9442 -115.8369 112° Southeast 320 368 27,000  Level Los Angeles Center
12:32PM 33.9078 -115.7192 110° East 314 361 27,000  Level Los Angeles Center
12:33PM 33.8753 -115.6194 111° Southeast 318 366 27,000  Level Los Angeles Center
12:34PM 33.8431 -115.5228 112° Southeast 313 360 27,000  Level Los Angeles Center
12:35PM 33.8117 -115.4239 111° Southeast 315 362 27,000  Level Los Angeles Center
12:36PM 33.7789 -115.3244 112° Southeast 318 366 27,000  Level Los Angeles Center
12:37PM 33.7481 -115.2267 111° Southeast 314 361 27,000  Level Los Angeles Center
12:38PM 33.7092 -115.1097 112° Southeast 314 361 27,000 -300 Level Los Angeles Center
12:39PM 33.6764 -115.0111 112° Southeast 317 365 26,500 -960 Descending Los Angeles Center
12:41PM 33.6419 -114.9053 111° Southeast 333 383 25,100 -1,260 Descending Los Angeles Center
12:42PM 33.6064 -114.7964 111° Southeast 347 399 23,900 -1,020 Descending Los Angeles Center
12:43PM 33.5894 -114.6872 101° East 340 391 23,100 -900 Descending Los Angeles Center
12:44PM 33.5792 -114.5775 96° East 332 382 22,100 -960 Descending Los Angeles Center
12:45PM 33.5669 -114.4461 96° East 331 381 21,100 -960 Descending Los Angeles Center
12:46PM 33.5561 -114.3389 97° East 327 376 20,100 -900 Descending Los Angeles Center
12:47PM 33.5478 -114.2381 96° East 324 373 19,300 -900 Descending Los Angeles Center
12:48PM 33.5378 -114.1314 96° East 322 371 18,300 -840 Descending Los Angeles Center
12:49PM 33.5253 -113.9803 96° East 319 367 17,300 -540 Descending Albuquerque Center
12:50PM 33.5147 -113.8786 97° East 311 358 17,000 -360 Descending Albuquerque Center
12:51PM 33.4722 -113.7942 121° Southeast 298 343 16,600 -780 Descending Albuquerque Center
12:52PM 33.4242 -113.6883 119° Southeast 299 344 15,500 -1,020 Descending Albuquerque Center
12:53PM 33.3828 -113.6017 120° Southeast 300 345 14,500 -960 Descending Albuquerque Center
12:54PM 33.3442 -113.5161 118° Southeast 297 342 13,600 -900 Descending Albuquerque Center
12:55PM 33.3042 -113.4297 119° Southeast 296 341 12,700 -900 Descending Albuquerque Center
12:56PM 33.2686 -113.3422 116° Southeast 293 337 11,800 -780 Descending Albuquerque Center
12:57PM 33.2703 -113.2456 89° East 292 336 11,100 -420 Descending Albuquerque Center
12:58PM 33.2725 -113.1347 89° East 285 328 11,000 -60 Descending Albuquerque Center
12:59PM 33.2750 -113.0469 88° East 273 314 11,000  Level Albuquerque Center
01:01PM 33.2781 -112.9586 88° East 268 308 11,000  Level Albuquerque Center
01:02PM 33.2794 -112.8714 89° East 265 305 11,000  Level Albuquerque Center
01:03PM 33.2811 -112.7831 89° East 266 306 11,000  Level Albuquerque Center
01:04PM 33.2836 -112.6953 88° East 265 305 11,000 -480 Level Albuquerque Center
01:05PM 33.2856 -112.5892 89° East 272 313 10,100 -480 Descending Albuquerque Center
01:06PM 33.2661 -112.5039 105° East 271 312 10,000 -60 Descending Albuquerque Center
01:07PM 33.2397 -112.4222 111° Southeast 266 306 10,000 -300 Level Albuquerque Center
01:08PM 33.2122 -112.3406 112° Southeast 267 307 9,500 -600 Descending Albuquerque Center
01:09PM 33.2050 -112.2519 96° East 278 320 8,800 -960 Descending Albuquerque Center
01:10PM 33.2256 -112.1472 77° East 272 313 7,600 -1,260 Descending Albuquerque Center
01:11PM 33.2439 -112.0589 76° East 275 316 6,300 -1,320 Descending Albuquerque Center
01:12PM 33.2628 -111.9719 75° East 273 314 4,900 -1,080 Descending Albuquerque Center
01:13PM 33.2817 -111.8861 75° East 269 310 4,100 -360 Descending Albuquerque Center
01:14PM 33.3236 -111.8431 41° Northeast 206 237 4,200 -420 Climbing Albuquerque Center
01:15PM 33.3786 -111.8125 25° Northeast 184 212 3,300 -780 Descending Albuquerque Center
01:16PM 33.4214 -111.7867 27° Northeast 172 198 2,700 -720 Descending Albuquerque Center
01:17PM 33.4450 -111.7519 51° Northeast 136 157 1,900 -600 Descending Albuquerque Center
01:18PM 33.4639 -111.7211 54° Northeast 115 132 1,500 -420 Descending Albuquerque Center
01:20PM 33.4608 -111.7283 165° South  Level Estimated